createdAt,value
2019-03-16T00:01:00.898Z,11.10
2019-03-16T00:03:31.460Z,11.10
2019-03-16T00:06:02.408Z,11.10
2019-03-16T00:08:33.106Z,11.10
2019-03-16T00:11:04.057Z,11.10
2019-03-16T00:13:34.336Z,11.10
2019-03-16T00:16:05.938Z,11.10
2019-03-16T00:18:36.199Z,11.10
2019-03-16T00:28:24.355Z,11.10
2019-03-16T00:31:53.313Z,11.00
2019-03-16T00:35:06.245Z,11.00
2019-03-16T00:39:09.059Z,11.00
2019-03-16T00:45:47.477Z,11.00
2019-03-16T01:03:53.834Z,10.90
2019-03-16T01:07:16.696Z,10.90
2019-03-16T01:10:45.881Z,10.90
2019-03-16T01:14:03.769Z,10.90
2019-03-16T01:20:39.547Z,11.00
2019-03-16T01:24:05.222Z,11.00
2019-03-16T01:27:15.652Z,11.00
2019-03-16T01:31:16.770Z,11.10
2019-03-16T01:44:18.931Z,11.00
2019-03-16T01:47:53.578Z,10.90
2019-03-16T01:51:18.367Z,10.90
2019-03-16T01:54:30.702Z,10.90
2019-03-16T01:57:39.333Z,10.90
2019-03-16T02:01:06.812Z,11.00
2019-03-16T02:04:45.970Z,10.90
2019-03-16T02:11:18.360Z,10.90
2019-03-16T02:15:39.789Z,10.90
2019-03-16T02:25:50.006Z,10.90
2019-03-16T02:29:14.720Z,10.90
2019-03-16T02:32:35.428Z,10.90
2019-03-16T02:35:29.402Z,10.90
2019-03-16T02:38:57.832Z,10.90
2019-03-16T02:42:09.757Z,10.90
2019-03-16T02:45:15.420Z,10.90
2019-03-16T02:51:39.352Z,10.90
2019-03-16T02:54:56.645Z,10.90
2019-03-16T03:01:13.701Z,10.90
2019-03-16T03:04:04.085Z,10.90
2019-03-16T03:07:05.375Z,10.90
2019-03-16T03:17:46.882Z,10.80
2019-03-16T03:20:42.617Z,10.80
2019-03-16T03:24:23.302Z,10.80
2019-03-16T03:27:49.220Z,10.80
2019-03-16T03:31:14.806Z,10.80
2019-03-16T03:34:45.419Z,10.70
2019-03-16T03:38:29.227Z,10.70
2019-03-16T03:42:06.841Z,10.80
2019-03-16T03:45:16.965Z,10.80
2019-03-16T03:48:31.033Z,10.80
2019-03-16T03:52:07.759Z,10.80
2019-03-16T03:58:37.958Z,10.90
2019-03-16T04:17:00.290Z,10.80
2019-03-16T04:20:49.493Z,10.80
2019-03-16T04:27:59.771Z,10.80
2019-03-16T04:34:33.839Z,10.80
2019-03-16T04:40:51.427Z,10.80
2019-03-16T04:48:16.677Z,10.80
2019-03-16T04:52:06.428Z,10.80
2019-03-16T04:59:32.545Z,10.80
2019-03-16T05:13:59.812Z,10.80
2019-03-16T05:17:25.904Z,10.80
2019-03-16T05:24:38.243Z,10.80
2019-03-16T05:27:48.111Z,10.80
2019-03-16T05:31:17.262Z,10.80
2019-03-16T05:34:58.167Z,10.80
2019-03-16T05:38:20.435Z,10.80
2019-03-16T05:41:22.025Z,10.80
2019-03-16T05:44:37.891Z,10.90
2019-03-16T05:47:53.743Z,10.90
2019-03-16T05:59:00.813Z,10.90
2019-03-16T06:02:51.535Z,10.90
2019-03-16T06:06:22.567Z,10.90
2019-03-16T06:09:45.698Z,10.90
2019-03-16T06:13:07.114Z,10.90
2019-03-16T06:17:23.723Z,10.90
2019-03-16T06:20:16.322Z,10.90
2019-03-16T06:23:18.300Z,10.90
2019-03-16T06:26:48.602Z,10.90
2019-03-16T06:30:33.825Z,10.90
2019-03-16T06:34:32.797Z,10.90
2019-03-16T06:37:35.330Z,10.90
2019-03-16T06:41:30.298Z,10.90
2019-03-16T06:51:56.232Z,11.00
2019-03-16T06:55:03.745Z,11.00
2019-03-16T07:01:33.359Z,11.00
2019-03-16T07:04:24.066Z,11.00
2019-03-16T07:07:35.618Z,11.00
2019-03-16T07:10:50.480Z,11.00
2019-03-16T07:13:37.289Z,11.00
2019-03-16T07:16:11.826Z,10.90
2019-03-16T07:18:42.463Z,10.90
2019-03-16T07:21:12.752Z,11.00
2019-03-16T07:23:42.983Z,11.00
2019-03-16T07:26:15.185Z,11.00
2019-03-16T07:28:45.140Z,11.10
2019-03-16T07:31:16.074Z,11.10
2019-03-16T07:33:46.232Z,11.10
2019-03-16T07:36:16.319Z,11.20
2019-03-16T07:38:46.492Z,11.20
2019-03-16T07:41:17.730Z,11.20
2019-03-16T07:43:48.177Z,11.20
2019-03-16T07:46:18.900Z,11.20
2019-03-16T07:48:50.132Z,11.20
2019-03-16T07:51:20.306Z,11.30
2019-03-16T07:53:50.442Z,11.30
2019-03-16T07:56:20.933Z,11.30
2019-03-16T07:58:51.550Z,11.30
2019-03-16T08:01:22.064Z,11.30
2019-03-16T08:03:52.296Z,11.30
2019-03-16T08:06:22.819Z,11.30
2019-03-16T08:08:53.888Z,11.30
2019-03-16T08:11:24.145Z,11.30
2019-03-16T08:13:54.235Z,11.30
2019-03-16T08:16:24.566Z,11.40
2019-03-16T08:18:55.456Z,11.40
2019-03-16T08:21:26.733Z,11.40
2019-03-16T08:23:58.157Z,11.40
2019-03-16T08:26:29.562Z,11.40
2019-03-16T08:28:59.725Z,11.40
2019-03-16T08:31:30.440Z,11.40
2019-03-16T08:34:00.746Z,11.50
2019-03-16T08:36:31.864Z,11.50
2019-03-16T08:39:02.234Z,11.50
2019-03-16T08:41:34.431Z,11.50
2019-03-16T08:44:05.112Z,11.60
2019-03-16T08:46:35.378Z,11.60
2019-03-16T08:49:07.072Z,11.60
2019-03-16T08:51:38.639Z,11.60
2019-03-16T08:54:09.283Z,11.60
2019-03-16T08:56:39.966Z,11.60
2019-03-16T08:59:11.092Z,11.70
2019-03-16T09:01:41.411Z,11.70
2019-03-16T09:04:11.892Z,11.70
2019-03-16T09:06:42.281Z,11.70
2019-03-16T09:09:12.761Z,11.80
2019-03-16T09:11:44.025Z,11.80
2019-03-16T09:14:14.706Z,11.80
2019-03-16T09:16:44.940Z,11.80
2019-03-16T09:19:16.053Z,11.80
2019-03-16T09:21:46.769Z,11.80
2019-03-16T09:24:17.131Z,11.80
2019-03-16T09:26:47.778Z,11.80
2019-03-16T09:29:18.205Z,11.80
2019-03-16T09:31:49.000Z,11.90
2019-03-16T09:34:19.487Z,12.00
2019-03-16T09:36:50.933Z,11.90
2019-03-16T09:39:21.562Z,12.00
2019-03-16T09:41:52.080Z,12.00
2019-03-16T09:44:22.983Z,12.10
2019-03-16T09:46:53.854Z,12.10
2019-03-16T09:49:24.791Z,12.20
2019-03-16T09:51:56.280Z,12.10
2019-03-16T09:54:27.958Z,12.20
2019-03-16T09:57:01.443Z,12.20
2019-03-16T09:59:31.488Z,12.30
2019-03-16T10:02:02.275Z,12.30
2019-03-16T10:04:32.941Z,12.40
2019-03-16T10:07:04.097Z,12.40
2019-03-16T10:09:34.802Z,12.50
2019-03-16T10:12:09.294Z,12.50
2019-03-16T10:14:39.528Z,12.50
2019-03-16T10:17:10.370Z,12.50
2019-03-16T10:19:40.617Z,12.50
2019-03-16T10:22:10.967Z,12.50
2019-03-16T10:24:41.260Z,12.50
2019-03-16T10:27:11.943Z,12.60
2019-03-16T10:29:42.176Z,12.60
2019-03-16T10:32:12.709Z,12.60
2019-03-16T10:34:43.898Z,12.70
2019-03-16T10:37:14.257Z,12.70
2019-03-16T10:39:44.525Z,12.80
2019-03-16T10:42:15.355Z,12.80
2019-03-16T10:44:46.190Z,12.80
2019-03-16T10:47:17.540Z,12.80
2019-03-16T10:49:48.207Z,12.90
2019-03-16T10:52:18.984Z,12.90
2019-03-16T10:54:49.791Z,12.90
2019-03-16T10:57:20.035Z,12.90
2019-03-16T10:59:50.376Z,12.90
2019-03-16T11:02:21.354Z,12.90
2019-03-16T11:04:53.464Z,12.90
2019-03-16T11:07:23.713Z,12.90
2019-03-16T11:09:53.988Z,12.90
2019-03-16T11:12:24.616Z,12.90
2019-03-16T11:14:54.875Z,12.90
2019-03-16T11:17:25.665Z,12.90
2019-03-16T11:19:56.267Z,12.90
2019-03-16T11:22:26.968Z,13.00
2019-03-16T11:24:57.165Z,13.00
2019-03-16T11:27:28.088Z,13.00
2019-03-16T11:29:58.258Z,13.00
2019-03-16T11:32:29.277Z,13.10
2019-03-16T11:34:59.505Z,13.10
2019-03-16T11:37:30.297Z,13.10
2019-03-16T11:40:02.020Z,13.10
2019-03-16T11:42:33.427Z,13.10
2019-03-16T11:45:04.460Z,13.10
2019-03-16T11:47:34.725Z,13.10
2019-03-16T11:50:05.491Z,13.20
2019-03-16T11:52:36.069Z,13.10
2019-03-16T11:55:07.358Z,13.20
2019-03-16T11:57:39.362Z,13.20
2019-03-16T12:00:10.048Z,13.30
2019-03-16T12:02:40.744Z,13.30
2019-03-16T12:05:10.961Z,13.30
2019-03-16T12:07:41.883Z,13.40
2019-03-16T12:10:12.508Z,13.40
2019-03-16T12:12:43.125Z,13.40
2019-03-16T12:15:14.188Z,13.40
2019-03-16T12:17:44.826Z,13.40
2019-03-16T12:20:18.163Z,13.40
2019-03-16T12:22:48.532Z,13.50
2019-03-16T12:25:18.915Z,13.50
2019-03-16T12:27:50.053Z,13.50
2019-03-16T12:30:20.220Z,13.50
2019-03-16T12:32:50.841Z,13.50
2019-03-16T12:35:22.336Z,13.60
2019-03-16T12:37:53.595Z,13.60
2019-03-16T12:40:24.154Z,13.60
2019-03-16T12:42:54.503Z,13.60
2019-03-16T12:45:25.062Z,13.70
2019-03-16T12:47:55.390Z,13.70
2019-03-16T12:50:25.759Z,13.70
2019-03-16T12:52:55.932Z,13.70
2019-03-16T12:55:26.577Z,13.80
2019-03-16T12:57:56.932Z,13.80
2019-03-16T13:00:27.743Z,13.80
2019-03-16T13:02:59.479Z,13.80
2019-03-16T13:05:29.843Z,13.80
2019-03-16T13:08:00.112Z,13.80
2019-03-16T13:10:30.710Z,13.80
2019-03-16T13:13:01.358Z,13.90
2019-03-16T13:15:32.598Z,13.80
2019-03-16T13:18:03.861Z,13.90
2019-03-16T13:20:34.491Z,13.90
2019-03-16T13:23:04.674Z,13.90
2019-03-16T13:25:35.490Z,14.00
2019-03-16T13:28:05.982Z,14.00
2019-03-16T13:30:36.240Z,14.10
2019-03-16T13:33:07.337Z,14.10
2019-03-16T13:35:38.079Z,14.20
2019-03-16T13:38:08.743Z,14.10
2019-03-16T13:40:40.133Z,14.20
2019-03-16T13:43:12.932Z,14.20
2019-03-16T13:45:43.080Z,14.30
2019-03-16T13:48:13.350Z,14.30
2019-03-16T13:50:44.478Z,14.40
2019-03-16T13:53:15.098Z,14.40
2019-03-16T13:55:46.391Z,14.40
2019-03-16T13:58:17.000Z,14.50
2019-03-16T14:00:47.883Z,14.50
2019-03-16T14:03:19.110Z,14.60
2019-03-16T14:05:49.649Z,14.60
2019-03-16T14:08:20.368Z,14.60
2019-03-16T14:10:51.946Z,14.70
2019-03-16T14:13:23.978Z,14.70
2019-03-16T14:15:56.022Z,14.80
2019-03-16T14:18:27.269Z,14.90
2019-03-16T14:20:59.198Z,14.90
2019-03-16T14:23:30.086Z,14.90
2019-03-16T14:26:02.590Z,14.90
2019-03-16T14:28:33.929Z,14.90
2019-03-16T14:31:04.877Z,14.90
2019-03-16T14:33:35.143Z,14.90
2019-03-16T14:36:06.068Z,15.00
2019-03-16T14:38:36.651Z,15.00
2019-03-16T14:41:08.314Z,15.00
2019-03-16T14:43:38.941Z,15.10
2019-03-16T14:46:09.324Z,15.00
2019-03-16T14:48:41.186Z,15.10
2019-03-16T14:51:11.807Z,15.10
2019-03-16T14:53:42.137Z,15.20
2019-03-16T14:56:12.862Z,15.20
2019-03-16T14:58:43.206Z,15.20
2019-03-16T15:01:13.593Z,15.20
2019-03-16T15:03:44.298Z,15.30
2019-03-16T15:06:14.621Z,15.30
2019-03-16T15:08:45.495Z,15.30
2019-03-16T15:11:16.172Z,15.30
2019-03-16T15:13:46.576Z,15.40
2019-03-16T15:16:17.560Z,15.40
2019-03-16T15:18:49.991Z,15.40
2019-03-16T15:21:20.706Z,15.30
2019-03-16T15:23:51.015Z,15.30
2019-03-16T15:26:22.625Z,15.40
2019-03-16T15:28:55.175Z,15.40
2019-03-16T15:31:25.870Z,15.40
2019-03-16T15:33:56.042Z,15.40
2019-03-16T15:36:26.300Z,15.40
2019-03-16T15:38:57.431Z,15.40
2019-03-16T15:41:27.724Z,15.50
2019-03-16T15:43:59.196Z,15.40
2019-03-16T15:46:29.922Z,15.40
2019-03-16T15:49:00.139Z,15.40
2019-03-16T15:51:30.422Z,15.40
2019-03-16T15:54:01.822Z,15.40
2019-03-16T15:56:32.751Z,15.40
2019-03-16T19:24:18.158Z,13.20
2019-03-16T19:27:29.529Z,13.30
2019-03-16T19:30:52.998Z,13.30
2019-03-16T19:34:08.691Z,13.30
2019-03-16T19:40:52.067Z,13.40
2019-03-16T19:47:07.755Z,13.20
2019-03-16T19:51:15.816Z,13.10
2019-03-16T19:53:56.446Z,13.00
2019-03-16T19:56:44.039Z,12.90
2019-03-16T20:06:25.613Z,13.00
2019-03-16T20:12:08.706Z,13.10
2019-03-16T20:18:27.980Z,13.20
2019-03-16T20:21:06.256Z,13.30
2019-03-16T20:24:54.459Z,13.30
2019-03-16T20:31:49.401Z,13.30
2019-03-16T20:35:12.581Z,13.40
2019-03-16T20:42:42.771Z,13.40
2019-03-16T20:46:02.965Z,13.40
2019-03-16T20:48:50.328Z,13.30
2019-03-16T22:02:59.698Z,13.30
2019-03-16T22:05:41.268Z,13.40
2019-03-16T22:08:11.897Z,13.40
2019-03-16T22:10:42.082Z,13.40
2019-03-16T22:13:28.875Z,13.40
2019-03-16T22:16:04.171Z,13.40
2019-03-16T22:18:57.060Z,13.50
2019-03-16T22:21:52.823Z,13.50
2019-03-16T22:57:29.519Z,13.70
2019-03-16T23:10:50.432Z,13.50
2019-03-16T23:35:19.727Z,12.80
2019-03-16T23:50:22.989Z,12.30
2019-03-16T23:57:43.154Z,11.90
